createdAt,value
2023-03-04T07:00:50.100Z,0.78
2023-03-04T07:03:16.565Z,0.88
2023-03-04T07:05:43.514Z,0.92
2023-03-04T07:08:09.985Z,1.00
2023-03-04T07:10:36.372Z,1.06
2023-03-04T07:13:03.001Z,1.10
2023-03-04T07:15:29.534Z,1.10
2023-03-04T07:17:55.990Z,1.08
2023-03-04T07:20:22.426Z,1.06
2023-03-04T07:22:49.103Z,1.05
2023-03-04T07:25:15.714Z,1.16
2023-03-04T07:27:42.114Z,1.14
2023-03-04T07:30:09.384Z,1.20
2023-03-04T07:32:35.892Z,1.25
2023-03-04T07:35:03.795Z,1.30
2023-03-04T07:37:30.233Z,1.34
2023-03-04T07:39:56.641Z,1.39
2023-03-04T07:42:23.128Z,1.40
2023-03-04T07:44:59.518Z,1.38
2023-03-04T07:47:26.233Z,1.46
2023-03-04T07:49:53.264Z,1.53
2023-03-04T07:52:19.805Z,1.56
2023-03-04T07:54:46.396Z,1.53
2023-03-04T07:57:12.813Z,1.58
2023-03-04T07:59:39.286Z,1.64
2023-03-04T08:02:05.758Z,1.73
2023-03-04T08:04:32.209Z,1.75
2023-03-04T08:06:58.704Z,1.74
2023-03-04T08:09:25.171Z,1.68
2023-03-04T08:11:51.627Z,1.66
2023-03-04T08:14:18.406Z,1.66
2023-03-04T08:16:44.817Z,1.70
2023-03-04T08:19:12.425Z,1.78
2023-03-04T08:21:38.971Z,1.83
2023-03-04T08:24:08.509Z,1.87
2023-03-04T08:26:44.011Z,1.93
2023-03-04T08:29:18.915Z,2.01
2023-03-04T08:31:48.730Z,2.07
2023-03-04T08:34:16.260Z,2.09
2023-03-04T08:36:42.931Z,2.15
2023-03-04T08:39:14.282Z,2.14
2023-03-04T08:41:41.094Z,2.16
2023-03-04T08:44:10.125Z,2.20
2023-03-04T08:46:37.630Z,2.17
2023-03-04T08:49:04.792Z,2.24
2023-03-04T08:51:31.404Z,2.29
2023-03-04T08:53:58.126Z,2.35
2023-03-04T08:56:24.571Z,2.35
2023-03-04T08:58:51.114Z,2.39
2023-03-04T09:01:17.510Z,2.38
2023-03-04T09:03:44.096Z,2.39
2023-03-04T09:06:13.984Z,2.42
2023-03-04T09:08:40.598Z,2.41
2023-03-04T09:11:07.111Z,2.48
2023-03-04T09:13:33.580Z,2.56
2023-03-04T09:16:00.344Z,2.65
2023-03-04T09:18:27.730Z,2.73
2023-03-04T09:20:54.444Z,2.81
2023-03-04T09:23:21.425Z,2.89
2023-03-04T09:25:49.802Z,2.98
2023-03-04T09:28:17.220Z,3.00
2023-03-04T09:30:44.034Z,3.05
2023-03-04T09:33:10.687Z,3.13
2023-03-04T09:35:37.358Z,3.20
2023-03-04T09:38:03.791Z,3.31
2023-03-04T09:40:33.624Z,3.34
2023-03-04T09:43:03.439Z,3.42
2023-03-04T09:45:45.531Z,3.52
2023-03-04T09:48:16.817Z,3.61
2023-03-04T09:50:55.300Z,3.65
2023-03-04T09:53:28.908Z,3.71
2023-03-04T09:55:55.716Z,3.74
2023-03-04T09:58:27.019Z,3.78
2023-03-04T10:00:58.426Z,3.80
2023-03-04T10:03:28.965Z,3.77
2023-03-04T10:06:05.102Z,3.80
2023-03-04T10:08:49.814Z,3.87
2023-03-04T10:11:25.398Z,3.93
2023-03-04T10:14:16.410Z,3.98
2023-03-04T10:16:46.194Z,4.06
2023-03-04T10:19:24.234Z,3.99
2023-03-04T10:21:51.786Z,4.03
2023-03-04T10:24:22.421Z,4.05
2023-03-04T10:26:52.764Z,4.04
2023-03-04T10:29:22.859Z,4.08
2023-03-04T10:31:49.714Z,4.16
2023-03-04T10:34:17.682Z,4.21
2023-03-04T10:36:50.324Z,4.22
2023-03-04T10:39:19.821Z,4.24
2023-03-04T10:41:55.354Z,4.28
2023-03-04T10:44:22.995Z,4.24
2023-03-04T10:46:49.954Z,4.32
2023-03-04T10:49:18.440Z,4.38
2023-03-04T10:51:47.707Z,4.35
2023-03-04T10:54:20.605Z,4.39
2023-03-04T10:57:04.826Z,4.39
2023-03-04T10:59:45.582Z,4.34
2023-03-04T11:02:21.956Z,4.37
2023-03-04T11:05:05.128Z,4.30
2023-03-04T11:07:38.088Z,4.30
2023-03-04T11:10:38.158Z,4.42
2023-03-04T11:13:19.848Z,4.53
2023-03-04T11:15:58.728Z,4.55
2023-03-04T11:18:41.216Z,4.58
2023-03-04T11:21:15.001Z,4.59
2023-03-04T11:24:27.565Z,4.58
2023-03-04T11:27:03.344Z,4.56
2023-03-04T11:29:47.897Z,4.58
2023-03-04T11:32:40.980Z,4.61
2023-03-04T11:35:52.296Z,4.59
2023-03-04T11:38:21.926Z,4.59
2023-03-04T11:40:54.642Z,4.53
2023-03-04T11:43:35.684Z,4.44
2023-03-04T11:46:05.685Z,4.51
2023-03-04T11:48:46.217Z,4.57
2023-03-04T11:51:23.910Z,4.65
2023-03-04T11:54:11.618Z,4.61
2023-03-04T11:56:43.371Z,4.61
2023-03-04T11:59:27.966Z,4.63
2023-03-04T12:02:18.238Z,4.55
2023-03-04T12:05:02.896Z,4.53
2023-03-04T12:07:48.139Z,4.56
2023-03-04T12:10:19.455Z,4.60
2023-03-04T12:13:12.964Z,4.62
2023-03-04T12:15:49.323Z,4.61
2023-03-04T12:18:31.857Z,4.63
2023-03-04T12:21:11.484Z,4.65
2023-03-04T12:23:54.779Z,4.57
2023-03-04T12:26:23.883Z,4.55
2023-03-04T12:29:00.245Z,4.58
2023-03-04T12:31:43.643Z,4.53
2023-03-04T12:34:28.931Z,4.58
2023-03-04T12:37:31.012Z,4.63
2023-03-04T12:40:09.366Z,4.64
2023-03-04T12:43:01.258Z,4.59
2023-03-04T12:45:34.701Z,4.59
2023-03-04T12:48:38.428Z,4.58
2023-03-04T12:51:31.188Z,4.52
2023-03-04T12:54:35.101Z,4.54
2023-03-04T12:57:10.968Z,4.55
2023-03-04T12:59:42.260Z,4.49
2023-03-04T13:02:33.063Z,4.54
2023-03-04T13:05:26.468Z,4.55
2023-03-04T13:08:03.841Z,4.56
2023-03-04T13:10:30.365Z,4.47
2023-03-04T13:12:59.400Z,4.46
2023-03-04T13:15:25.733Z,4.41
2023-03-04T13:17:54.630Z,4.43
2023-03-04T13:20:21.061Z,4.46
2023-03-04T13:22:58.073Z,4.45
2023-03-04T13:25:42.764Z,4.46
2023-03-04T13:28:09.109Z,4.49
2023-03-04T13:30:35.549Z,4.53
2023-03-04T13:33:10.963Z,4.53
2023-03-04T13:35:47.036Z,4.59
2023-03-04T13:38:27.387Z,4.62
2023-03-04T13:41:06.343Z,4.66
2023-03-04T13:43:48.409Z,4.72
2023-03-04T13:46:20.893Z,4.77
2023-03-04T13:48:50.083Z,4.79
2023-03-04T13:51:31.431Z,4.87
2023-03-04T13:54:00.819Z,4.91
2023-03-04T13:56:43.037Z,4.97
2023-03-04T13:59:09.459Z,5.02
2023-03-04T14:01:43.117Z,5.03
2023-03-04T14:04:15.589Z,5.09
2023-03-04T14:06:43.781Z,5.13
2023-03-04T14:09:24.365Z,5.16
2023-03-04T14:11:51.853Z,5.29
2023-03-04T14:14:23.345Z,5.32
2023-03-04T14:17:00.273Z,5.38
2023-03-04T14:19:35.908Z,5.44
2023-03-04T14:22:02.355Z,5.46
2023-03-04T14:24:30.808Z,5.43
2023-03-04T14:27:11.407Z,5.32
2023-03-04T14:29:37.848Z,5.29
2023-03-04T14:32:06.036Z,5.25
2023-03-04T14:34:37.963Z,5.17
2023-03-04T14:37:19.940Z,5.15
2023-03-04T14:39:50.132Z,5.15
2023-03-04T14:42:16.948Z,5.23
2023-03-04T14:44:49.042Z,5.18
2023-03-04T14:47:22.268Z,5.08
2023-03-04T14:49:49.056Z,5.01
2023-03-04T14:52:35.155Z,4.98
2023-03-04T14:55:09.037Z,4.98
2023-03-04T14:57:35.599Z,4.93
2023-03-04T15:00:38.972Z,4.93
2023-03-04T15:03:17.061Z,4.90
2023-03-04T15:05:43.536Z,4.93
2023-03-04T15:08:22.249Z,4.95
2023-03-04T15:10:58.013Z,4.97
2023-03-04T15:13:44.577Z,4.96
2023-03-04T15:16:13.671Z,4.91
2023-03-04T15:19:13.555Z,4.92
2023-03-04T15:21:41.121Z,4.95
2023-03-04T15:24:09.846Z,4.97
2023-03-04T15:26:40.650Z,4.96
2023-03-04T15:29:14.612Z,4.96
2023-03-04T15:31:43.684Z,4.95
2023-03-04T15:34:14.311Z,4.91
2023-03-04T15:36:41.316Z,4.95
2023-03-04T15:39:11.140Z,4.91
2023-03-04T15:41:38.840Z,4.88
2023-03-04T15:44:05.572Z,4.93
2023-03-04T15:46:32.200Z,4.97
2023-03-04T15:48:58.974Z,4.98
2023-03-04T15:51:26.336Z,4.92
2023-03-04T15:53:55.873Z,4.90
2023-03-04T15:56:24.875Z,4.90
2023-03-04T15:58:54.788Z,4.91
2023-03-04T16:01:22.036Z,4.90
2023-03-04T16:03:48.984Z,4.86
2023-03-04T16:06:18.618Z,4.84
2023-03-04T16:08:45.582Z,4.83
2023-03-04T16:11:23.532Z,4.86
2023-03-04T16:13:49.976Z,4.88
2023-03-04T16:16:16.962Z,4.82
2023-03-04T16:18:43.774Z,4.83
2023-03-04T16:21:13.674Z,4.82
2023-03-04T16:23:42.373Z,4.82
2023-03-04T16:26:13.488Z,4.79
2023-03-04T16:28:40.120Z,4.75
2023-03-04T16:31:06.753Z,4.75
2023-03-04T16:33:33.334Z,4.78
2023-03-04T16:35:59.875Z,4.81
2023-03-04T16:38:29.807Z,4.78
2023-03-04T16:40:56.936Z,4.79
2023-03-04T16:43:24.005Z,4.79
2023-03-04T16:45:50.491Z,4.79
2023-03-04T16:48:17.085Z,4.76
2023-03-04T16:50:43.962Z,4.74
2023-03-04T16:53:32.696Z,4.78
2023-03-04T16:56:03.373Z,4.80
2023-03-04T16:58:29.773Z,4.80
2023-03-04T17:00:56.646Z,4.81
2023-03-04T17:03:23.281Z,4.75
2023-03-04T17:05:49.828Z,4.73
2023-03-04T17:08:16.515Z,4.72
2023-03-04T17:10:42.948Z,4.71
2023-03-04T17:13:09.413Z,4.68
2023-03-04T17:15:35.926Z,4.69
2023-03-04T17:18:02.452Z,4.70
2023-03-04T17:20:28.868Z,4.74
2023-03-04T17:22:55.274Z,4.74
2023-03-04T17:25:21.663Z,4.73
2023-03-04T17:27:48.112Z,4.72
2023-03-04T17:30:14.936Z,4.70
2023-03-04T17:32:41.495Z,4.68
2023-03-04T17:35:09.149Z,4.70
2023-03-04T17:37:36.531Z,4.68
2023-03-04T17:40:08.568Z,4.64
2023-03-04T17:42:35.090Z,4.59
2023-03-04T17:45:01.648Z,4.59
2023-03-04T17:47:28.350Z,4.57
2023-03-04T17:49:54.838Z,4.57
2023-03-04T17:52:21.390Z,4.65
2023-03-04T17:54:48.296Z,4.62
2023-03-04T17:57:15.039Z,4.58
2023-03-04T17:59:41.628Z,4.60
2023-03-04T18:02:13.796Z,4.59
2023-03-04T18:04:40.341Z,4.62
2023-03-04T18:07:06.793Z,4.57
2023-03-04T18:09:33.307Z,4.60
2023-03-04T18:11:59.791Z,4.59
2023-03-04T18:14:26.337Z,4.64
2023-03-04T18:16:52.887Z,4.62
2023-03-04T18:19:19.340Z,4.65
2023-03-04T18:21:46.111Z,4.64
2023-03-04T18:24:12.711Z,4.66
2023-03-04T18:26:39.321Z,4.65
2023-03-04T18:29:05.852Z,4.70
2023-03-04T18:31:32.477Z,4.67
2023-03-04T18:34:03.378Z,4.65
2023-03-04T18:36:30.337Z,4.72
2023-03-04T18:38:59.270Z,4.69
2023-03-04T18:41:27.557Z,4.74
2023-03-04T18:43:54.632Z,4.77
2023-03-04T18:46:40.349Z,4.74
2023-03-04T18:49:08.817Z,4.73
2023-03-04T18:51:35.373Z,4.75
2023-03-04T18:54:01.883Z,4.78
2023-03-04T18:56:38.780Z,4.77
2023-03-04T18:59:08.347Z,4.83
2023-03-04T19:01:34.892Z,4.80
2023-03-04T19:04:04.593Z,4.81
2023-03-04T19:06:32.387Z,4.79
2023-03-04T19:08:59.073Z,4.76
2023-03-04T19:11:25.660Z,4.78
2023-03-04T19:13:52.284Z,4.79
2023-03-04T19:16:18.913Z,4.76
2023-03-04T19:18:45.389Z,4.71
2023-03-04T19:21:11.892Z,4.70
2023-03-04T19:23:38.442Z,4.68
2023-03-04T19:26:06.925Z,4.67
2023-03-04T19:28:33.982Z,4.64
2023-03-04T19:31:05.481Z,4.67
2023-03-04T19:33:32.098Z,4.70
2023-03-04T19:36:01.580Z,4.72
2023-03-04T19:38:28.736Z,4.71
2023-03-04T19:40:55.258Z,4.70
2023-03-04T19:43:21.785Z,4.73
2023-03-04T19:45:55.922Z,4.75
2023-03-04T19:48:23.381Z,4.82
2023-03-04T19:50:49.981Z,4.80
2023-03-04T19:53:18.556Z,4.79
2023-03-04T19:55:53.577Z,4.80
2023-03-04T19:58:20.844Z,4.77
2023-03-04T20:00:47.472Z,4.74
2023-03-04T20:03:13.966Z,4.80
2023-03-04T20:05:40.500Z,4.82
2023-03-04T20:08:07.026Z,4.79
2023-03-04T20:10:38.038Z,4.80
2023-03-04T20:13:05.838Z,4.79
2023-03-04T20:15:32.370Z,4.76
2023-03-04T20:17:58.920Z,4.74
2023-03-04T20:20:28.564Z,4.72
2023-03-04T20:22:56.069Z,4.71
2023-03-04T20:25:23.289Z,4.80
2023-03-04T20:27:49.746Z,4.75
2023-03-04T20:30:16.616Z,4.67
2023-03-04T20:32:43.169Z,4.71
2023-03-04T20:35:14.008Z,4.63
2023-03-04T20:37:41.716Z,4.64
2023-03-04T20:40:09.857Z,4.63
2023-03-04T20:42:36.334Z,4.60
2023-03-04T20:45:03.060Z,4.64
2023-03-04T20:47:31.223Z,4.55
2023-03-04T20:49:57.818Z,4.56
2023-03-04T20:52:24.369Z,4.57
2023-03-04T20:54:50.858Z,4.61
2023-03-04T20:57:17.322Z,4.62
2023-03-04T20:59:43.788Z,4.59
2023-03-04T21:02:14.271Z,4.57
2023-03-04T21:04:40.756Z,4.59
2023-03-04T21:07:07.304Z,4.57
2023-03-04T21:09:34.030Z,4.61
2023-03-04T21:12:01.085Z,4.62
2023-03-04T21:14:29.534Z,4.69
2023-03-04T21:16:58.060Z,4.71
2023-03-04T21:19:27.529Z,4.65
2023-03-04T21:21:55.428Z,4.60
2023-03-04T21:24:24.053Z,4.65
2023-03-04T21:26:50.669Z,4.60
2023-03-04T21:29:22.795Z,4.58
2023-03-04T21:31:53.186Z,4.66
2023-03-04T21:34:22.734Z,4.63
2023-03-04T21:36:49.344Z,4.61
2023-03-04T21:39:21.379Z,4.58
2023-03-04T21:41:48.449Z,4.58
2023-03-04T21:44:27.704Z,4.63
2023-03-04T21:46:58.055Z,4.62
2023-03-04T21:49:24.944Z,4.63
2023-03-04T21:51:51.685Z,4.64
2023-03-04T21:54:18.422Z,4.71
2023-03-04T21:56:44.923Z,4.65
2023-03-04T21:59:13.269Z,4.68
2023-03-04T22:01:40.895Z,4.61
2023-03-04T22:04:07.840Z,4.65
2023-03-04T22:06:34.597Z,4.58
2023-03-04T22:09:02.244Z,4.64
2023-03-04T22:11:30.028Z,4.67
2023-03-04T22:13:58.025Z,4.68
2023-03-04T22:16:24.930Z,4.68
2023-03-04T22:18:51.492Z,4.58
2023-03-04T22:21:19.596Z,4.69
2023-03-04T22:23:46.290Z,4.62
2023-03-04T22:26:15.623Z,4.62
2023-03-04T22:28:42.089Z,4.71
2023-03-04T22:31:29.977Z,4.65
2023-03-04T22:34:01.488Z,4.70
2023-03-04T22:36:32.594Z,4.64
2023-03-04T22:38:59.120Z,4.67
2023-03-04T22:41:25.598Z,4.64
2023-03-04T22:43:52.240Z,4.63
2023-03-04T22:46:38.458Z,4.66
2023-03-04T22:49:09.508Z,4.57
2023-03-04T22:51:36.957Z,4.57
2023-03-04T22:54:03.584Z,4.58
2023-03-04T22:56:30.160Z,4.57
2023-03-04T22:58:56.718Z,4.58
2023-03-04T23:01:24.782Z,4.62
2023-03-04T23:03:51.490Z,4.57
2023-03-04T23:06:25.050Z,4.55
2023-03-04T23:08:52.144Z,4.57
2023-03-04T23:11:21.134Z,4.50
2023-03-04T23:13:49.002Z,4.50
2023-03-04T23:16:16.916Z,4.48
2023-03-04T23:18:44.271Z,4.50
2023-03-04T23:21:16.452Z,4.49
2023-03-04T23:23:43.226Z,4.43
2023-03-04T23:26:24.555Z,4.49
2023-03-04T23:28:51.227Z,4.47
2023-03-04T23:31:18.875Z,4.46
2023-03-04T23:33:47.625Z,4.51
2023-03-04T23:36:16.294Z,4.41
2023-03-04T23:38:45.786Z,4.48
2023-03-04T23:41:13.945Z,4.47
2023-03-04T23:43:40.877Z,4.39
2023-03-04T23:46:09.319Z,4.39
2023-03-04T23:48:35.937Z,4.36
2023-03-04T23:51:02.407Z,4.40
2023-03-04T23:53:29.407Z,4.34
2023-03-04T23:55:55.928Z,4.32
2023-03-04T23:58:22.557Z,4.34
